sensor_id;sensor_type;location;lat;lon;timestamp;P1;durP1;ratioP1;P2;durP2;ratioP2
24143;SDS011;12307;50.828;6.080;2023-04-19T00:00:34;2.67;;;2.47;;
24143;SDS011;12307;50.828;6.080;2023-04-19T00:03:00;2.58;;;2.38;;
24143;SDS011;12307;50.828;6.080;2023-04-19T00:05:26;3.00;;;2.70;;
24143;SDS011;12307;50.828;6.080;2023-04-19T00:07:52;2.60;;;2.40;;
24143;SDS011;12307;50.828;6.080;2023-04-19T00:10:18;2.67;;;2.47;;
24143;SDS011;12307;50.828;6.080;2023-04-19T00:12:44;2.72;;;2.53;;
24143;SDS011;12307;50.828;6.080;2023-04-19T00:15:09;2.50;;;2.30;;
24143;SDS011;12307;50.828;6.080;2023-04-19T00:17:36;2.53;;;2.33;;
24143;SDS011;12307;50.828;6.080;2023-04-19T00:20:02;2.95;;;2.70;;
24143;SDS011;12307;50.828;6.080;2023-04-19T00:22:29;2.90;;;2.63;;
24143;SDS011;12307;50.828;6.080;2023-04-19T00:24:55;2.83;;;2.63;;
24143;SDS011;12307;50.828;6.080;2023-04-19T00:27:21;2.72;;;2.53;;
24143;SDS011;12307;50.828;6.080;2023-04-19T00:29:47;2.78;;;2.58;;
24143;SDS011;12307;50.828;6.080;2023-04-19T00:32:14;3.00;;;2.70;;
24143;SDS011;12307;50.828;6.080;2023-04-19T00:34:41;3.03;;;2.72;;
24143;SDS011;12307;50.828;6.080;2023-04-19T00:37:07;2.60;;;2.40;;
24143;SDS011;12307;50.828;6.080;2023-04-19T00:39:33;3.00;;;2.80;;
24143;SDS011;12307;50.828;6.080;2023-04-19T00:41:59;2.60;;;2.40;;
24143;SDS011;12307;50.828;6.080;2023-04-19T00:44:25;2.67;;;2.47;;
24143;SDS011;12307;50.828;6.080;2023-04-19T00:46:51;2.90;;;2.70;;
24143;SDS011;12307;50.828;6.080;2023-04-19T00:49:17;2.70;;;2.50;;
24143;SDS011;12307;50.828;6.080;2023-04-19T00:51:46;2.72;;;2.53;;
24143;SDS011;12307;50.828;6.080;2023-04-19T00:54:13;2.63;;;2.42;;
24143;SDS011;12307;50.828;6.080;2023-04-19T00:56:39;2.83;;;2.63;;
24143;SDS011;12307;50.828;6.080;2023-04-19T00:59:05;2.67;;;2.47;;
24143;SDS011;12307;50.828;6.080;2023-04-19T01:01:32;3.40;;;3.00;;
24143;SDS011;12307;50.828;6.080;2023-04-19T01:03:58;2.70;;;2.50;;
24143;SDS011;12307;50.828;6.080;2023-04-19T01:06:25;2.72;;;2.53;;
24143;SDS011;12307;50.828;6.080;2023-04-19T01:08:53;3.10;;;2.80;;
24143;SDS011;12307;50.828;6.080;2023-04-19T01:11:19;2.88;;;2.67;;
24143;SDS011;12307;50.828;6.080;2023-04-19T01:13:44;2.85;;;2.65;;
24143;SDS011;12307;50.828;6.080;2023-04-19T01:16:10;3.35;;;2.90;;
24143;SDS011;12307;50.828;6.080;2023-04-19T01:18:36;2.92;;;2.70;;
24143;SDS011;12307;50.828;6.080;2023-04-19T01:21:03;2.55;;;2.35;;
24143;SDS011;12307;50.828;6.080;2023-04-19T01:23:30;2.58;;;2.38;;
24143;SDS011;12307;50.828;6.080;2023-04-19T01:25:56;2.72;;;2.53;;
24143;SDS011;12307;50.828;6.080;2023-04-19T01:28:22;2.80;;;2.60;;
24143;SDS011;12307;50.828;6.080;2023-04-19T01:30:47;2.72;;;2.50;;
24143;SDS011;12307;50.828;6.080;2023-04-19T01:33:18;2.60;;;2.40;;
24143;SDS011;12307;50.828;6.080;2023-04-19T01:35:43;2.53;;;2.33;;
24143;SDS011;12307;50.828;6.080;2023-04-19T01:38:09;2.38;;;2.17;;
24143;SDS011;12307;50.828;6.080;2023-04-19T01:40:36;2.80;;;2.60;;
24143;SDS011;12307;50.828;6.080;2023-04-19T01:43:02;2.75;;;2.55;;
24143;SDS011;12307;50.828;6.080;2023-04-19T01:45:28;3.10;;;2.80;;
24143;SDS011;12307;50.828;6.080;2023-04-19T01:47:54;2.72;;;2.53;;
24143;SDS011;12307;50.828;6.080;2023-04-19T01:50:20;2.90;;;2.70;;
24143;SDS011;12307;50.828;6.080;2023-04-19T01:52:45;2.55;;;2.35;;
24143;SDS011;12307;50.828;6.080;2023-04-19T01:55:11;2.70;;;2.50;;
24143;SDS011;12307;50.828;6.080;2023-04-19T01:57:38;2.60;;;2.40;;
24143;SDS011;12307;50.828;6.080;2023-04-19T02:00:05;3.03;;;2.78;;
24143;SDS011;12307;50.828;6.080;2023-04-19T02:02:32;2.70;;;2.50;;
24143;SDS011;12307;50.828;6.080;2023-04-19T02:05:00;2.90;;;2.70;;
24143;SDS011;12307;50.828;6.080;2023-04-19T02:07:26;2.90;;;2.70;;
24143;SDS011;12307;50.828;6.080;2023-04-19T02:09:51;2.70;;;2.50;;
24143;SDS011;12307;50.828;6.080;2023-04-19T02:12:17;2.65;;;2.45;;
24143;SDS011;12307;50.828;6.080;2023-04-19T02:14:44;2.75;;;2.55;;
24143;SDS011;12307;50.828;6.080;2023-04-19T02:17:10;2.78;;;2.58;;
24143;SDS011;12307;50.828;6.080;2023-04-19T02:19:36;2.85;;;2.65;;
24143;SDS011;12307;50.828;6.080;2023-04-19T02:22:02;2.72;;;2.53;;
24143;SDS011;12307;50.828;6.080;2023-04-19T02:24:27;2.67;;;2.47;;
24143;SDS011;12307;50.828;6.080;2023-04-19T02:26:53;3.00;;;2.70;;
24143;SDS011;12307;50.828;6.080;2023-04-19T02:29:19;2.67;;;2.47;;
24143;SDS011;12307;50.828;6.080;2023-04-19T02:31:46;2.70;;;2.50;;
24143;SDS011;12307;50.828;6.080;2023-04-19T02:34:12;2.35;;;2.15;;
24143;SDS011;12307;50.828;6.080;2023-04-19T02:36:37;2.47;;;2.28;;
24143;SDS011;12307;50.828;6.080;2023-04-19T02:39:03;2.50;;;2.30;;
24143;SDS011;12307;50.828;6.080;2023-04-19T02:41:29;2.67;;;2.47;;
24143;SDS011;12307;50.828;6.080;2023-04-19T02:43:55;2.80;;;2.60;;
24143;SDS011;12307;50.828;6.080;2023-04-19T02:46:21;2.60;;;2.40;;
24143;SDS011;12307;50.828;6.080;2023-04-19T02:48:48;2.80;;;2.50;;
24143;SDS011;12307;50.828;6.080;2023-04-19T02:51:14;2.80;;;2.60;;
24143;SDS011;12307;50.828;6.080;2023-04-19T02:53:40;3.55;;;2.70;;
24143;SDS011;12307;50.828;6.080;2023-04-19T02:56:06;2.90;;;2.70;;
24143;SDS011;12307;50.828;6.080;2023-04-19T02:58:33;2.83;;;2.63;;
24143;SDS011;12307;50.828;6.080;2023-04-19T03:01:00;2.50;;;2.30;;
24143;SDS011;12307;50.828;6.080;2023-04-19T03:03:26;3.08;;;2.88;;
24143;SDS011;12307;50.828;6.080;2023-04-19T03:05:53;2.80;;;2.55;;
24143;SDS011;12307;50.828;6.080;2023-04-19T03:08:19;2.53;;;2.33;;
24143;SDS011;12307;50.828;6.080;2023-04-19T03:10:45;2.70;;;2.33;;
24143;SDS011;12307;50.828;6.080;2023-04-19T03:13:11;2.72;;;2.53;;
24143;SDS011;12307;50.828;6.080;2023-04-19T03:15:37;2.65;;;2.45;;
24143;SDS011;12307;50.828;6.080;2023-04-19T03:18:02;2.58;;;2.38;;
24143;SDS011;12307;50.828;6.080;2023-04-19T03:20:28;2.88;;;2.67;;
24143;SDS011;12307;50.828;6.080;2023-04-19T03:22:55;3.00;;;2.75;;
24143;SDS011;12307;50.828;6.080;2023-04-19T03:25:21;2.40;;;2.20;;
24143;SDS011;12307;50.828;6.080;2023-04-19T03:27:47;2.50;;;2.30;;
24143;SDS011;12307;50.828;6.080;2023-04-19T03:30:15;2.42;;;2.22;;
24143;SDS011;12307;50.828;6.080;2023-04-19T03:32:40;2.60;;;2.40;;
24143;SDS011;12307;50.828;6.080;2023-04-19T03:35:06;2.60;;;2.40;;
24143;SDS011;12307;50.828;6.080;2023-04-19T03:37:33;2.72;;;2.53;;
24143;SDS011;12307;50.828;6.080;2023-04-19T03:40:00;2.42;;;2.22;;
24143;SDS011;12307;50.828;6.080;2023-04-19T03:42:26;2.70;;;2.50;;
24143;SDS011;12307;50.828;6.080;2023-04-19T03:44:51;2.90;;;2.70;;
24143;SDS011;12307;50.828;6.080;2023-04-19T03:47:17;2.70;;;2.50;;
24143;SDS011;12307;50.828;6.080;2023-04-19T03:49:43;2.42;;;2.22;;
24143;SDS011;12307;50.828;6.080;2023-04-19T03:52:08;2.58;;;2.38;;
24143;SDS011;12307;50.828;6.080;2023-04-19T03:54:34;2.53;;;2.33;;
24143;SDS011;12307;50.828;6.080;2023-04-19T03:57:01;2.63;;;2.42;;
24143;SDS011;12307;50.828;6.080;2023-04-19T03:59:27;2.80;;;2.60;;
24143;SDS011;12307;50.828;6.080;2023-04-19T04:01:52;2.55;;;2.35;;
24143;SDS011;12307;50.828;6.080;2023-04-19T04:04:18;2.60;;;2.40;;
24143;SDS011;12307;50.828;6.080;2023-04-19T04:06:44;2.55;;;2.35;;
24143;SDS011;12307;50.828;6.080;2023-04-19T04:09:10;2.80;;;2.60;;
24143;SDS011;12307;50.828;6.080;2023-04-19T04:11:35;2.85;;;2.65;;
24143;SDS011;12307;50.828;6.080;2023-04-19T04:14:02;2.53;;;2.30;;
24143;SDS011;12307;50.828;6.080;2023-04-19T04:16:28;2.72;;;2.53;;
24143;SDS011;12307;50.828;6.080;2023-04-19T04:18:54;2.80;;;2.60;;
24143;SDS011;12307;50.828;6.080;2023-04-19T04:21:19;2.72;;;2.53;;
24143;SDS011;12307;50.828;6.080;2023-04-19T04:23:45;2.67;;;2.47;;
24143;SDS011;12307;50.828;6.080;2023-04-19T04:26:11;2.80;;;2.30;;
24143;SDS011;12307;50.828;6.080;2023-04-19T04:28:37;2.63;;;2.42;;
24143;SDS011;12307;50.828;6.080;2023-04-19T04:31:05;2.65;;;2.45;;
24143;SDS011;12307;50.828;6.080;2023-04-19T04:33:30;2.80;;;2.60;;
24143;SDS011;12307;50.828;6.080;2023-04-19T04:35:56;2.50;;;2.30;;
24143;SDS011;12307;50.828;6.080;2023-04-19T04:38:23;2.53;;;2.33;;
24143;SDS011;12307;50.828;6.080;2023-04-19T04:40:49;2.30;;;2.20;;
24143;SDS011;12307;50.828;6.080;2023-04-19T04:43:15;2.70;;;2.50;;
24143;SDS011;12307;50.828;6.080;2023-04-19T04:45:41;2.55;;;2.35;;
24143;SDS011;12307;50.828;6.080;2023-04-19T04:48:09;2.35;;;2.15;;
24143;SDS011;12307;50.828;6.080;2023-04-19T04:50:35;2.53;;;2.33;;
24143;SDS011;12307;50.828;6.080;2023-04-19T04:53:01;2.45;;;2.25;;
24143;SDS011;12307;50.828;6.080;2023-04-19T04:55:26;2.63;;;2.42;;
24143;SDS011;12307;50.828;6.080;2023-04-19T04:57:52;2.75;;;2.50;;
24143;SDS011;12307;50.828;6.080;2023-04-19T05:00:18;2.65;;;2.45;;
24143;SDS011;12307;50.828;6.080;2023-04-19T05:02:44;2.50;;;2.30;;
24143;SDS011;12307;50.828;6.080;2023-04-19T05:05:11;2.58;;;2.38;;
24143;SDS011;12307;50.828;6.080;2023-04-19T05:07:37;2.83;;;2.42;;
24143;SDS011;12307;50.828;6.080;2023-04-19T05:10:03;2.60;;;2.40;;
24143;SDS011;12307;50.828;6.080;2023-04-19T05:12:29;2.88;;;2.60;;
24143;SDS011;12307;50.828;6.080;2023-04-19T05:14:55;2.20;;;2.10;;
24143;SDS011;12307;50.828;6.080;2023-04-19T05:17:21;2.30;;;2.10;;
24143;SDS011;12307;50.828;6.080;2023-04-19T05:19:46;2.40;;;2.20;;
24143;SDS011;12307;50.828;6.080;2023-04-19T05:22:13;2.63;;;2.42;;
24143;SDS011;12307;50.828;6.080;2023-04-19T05:24:39;2.75;;;2.20;;
24143;SDS011;12307;50.828;6.080;2023-04-19T05:27:05;2.30;;;2.10;;
24143;SDS011;12307;50.828;6.080;2023-04-19T05:29:31;2.38;;;2.08;;
24143;SDS011;12307;50.828;6.080;2023-04-19T05:31:57;2.67;;;2.47;;
24143;SDS011;12307;50.828;6.080;2023-04-19T05:34:23;2.60;;;2.40;;
24143;SDS011;12307;50.828;6.080;2023-04-19T05:36:49;2.67;;;2.47;;
24143;SDS011;12307;50.828;6.080;2023-04-19T05:39:16;2.67;;;2.47;;
24143;SDS011;12307;50.828;6.080;2023-04-19T05:41:42;2.47;;;2.28;;
24143;SDS011;12307;50.828;6.080;2023-04-19T05:44:08;2.90;;;2.65;;
24143;SDS011;12307;50.828;6.080;2023-04-19T05:46:33;3.08;;;2.88;;
24143;SDS011;12307;50.828;6.080;2023-04-19T05:49:00;2.40;;;2.20;;
24143;SDS011;12307;50.828;6.080;2023-04-19T05:51:26;2.30;;;2.10;;
24143;SDS011;12307;50.828;6.080;2023-04-19T05:53:52;2.65;;;2.45;;
24143;SDS011;12307;50.828;6.080;2023-04-19T05:56:19;2.47;;;2.28;;
24143;SDS011;12307;50.828;6.080;2023-04-19T05:58:45;2.60;;;2.40;;
24143;SDS011;12307;50.828;6.080;2023-04-19T06:01:11;2.45;;;2.25;;
24143;SDS011;12307;50.828;6.080;2023-04-19T06:03:36;3.00;;;2.58;;
24143;SDS011;12307;50.828;6.080;2023-04-19T06:06:02;2.70;;;2.50;;
24143;SDS011;12307;50.828;6.080;2023-04-19T06:08:28;2.60;;;2.40;;
24143;SDS011;12307;50.828;6.080;2023-04-19T06:10:54;2.70;;;2.38;;
24143;SDS011;12307;50.828;6.080;2023-04-19T06:13:21;2.53;;;2.33;;
24143;SDS011;12307;50.828;6.080;2023-04-19T06:15:47;2.70;;;2.50;;
24143;SDS011;12307;50.828;6.080;2023-04-19T06:18:13;2.05;;;1.95;;
24143;SDS011;12307;50.828;6.080;2023-04-19T06:20:39;2.33;;;2.13;;
24143;SDS011;12307;50.828;6.080;2023-04-19T06:23:05;2.45;;;2.25;;
24143;SDS011;12307;50.828;6.080;2023-04-19T06:25:31;2.60;;;2.40;;
24143;SDS011;12307;50.828;6.080;2023-04-19T06:27:56;2.63;;;2.42;;
24143;SDS011;12307;50.828;6.080;2023-04-19T06:30:24;2.60;;;2.40;;
24143;SDS011;12307;50.828;6.080;2023-04-19T06:32:50;2.25;;;2.05;;
24143;SDS011;12307;50.828;6.080;2023-04-19T06:35:15;2.50;;;2.30;;
24143;SDS011;12307;50.828;6.080;2023-04-19T06:37:41;2.47;;;2.28;;
24143;SDS011;12307;50.828;6.080;2023-04-19T06:40:07;2.47;;;2.28;;
24143;SDS011;12307;50.828;6.080;2023-04-19T06:42:34;2.58;;;2.38;;
24143;SDS011;12307;50.828;6.080;2023-04-19T06:45:00;2.63;;;2.42;;
24143;SDS011;12307;50.828;6.080;2023-04-19T06:47:27;2.50;;;2.30;;
24143;SDS011;12307;50.828;6.080;2023-04-19T06:49:53;2.80;;;2.60;;
24143;SDS011;12307;50.828;6.080;2023-04-19T06:52:19;2.45;;;2.25;;
24143;SDS011;12307;50.828;6.080;2023-04-19T06:54:46;2.42;;;2.22;;
24143;SDS011;12307;50.828;6.080;2023-04-19T06:57:12;2.60;;;2.40;;
24143;SDS011;12307;50.828;6.080;2023-04-19T06:59:38;2.70;;;2.50;;
24143;SDS011;12307;50.828;6.080;2023-04-19T07:02:04;2.80;;;2.60;;
24143;SDS011;12307;50.828;6.080;2023-04-19T07:04:31;3.20;;;2.90;;
24143;SDS011;12307;50.828;6.080;2023-04-19T07:06:57;2.60;;;2.40;;
24143;SDS011;12307;50.828;6.080;2023-04-19T07:09:24;3.15;;;2.85;;
24143;SDS011;12307;50.828;6.080;2023-04-19T07:11:50;3.42;;;2.95;;
24143;SDS011;12307;50.828;6.080;2023-04-19T07:14:16;3.38;;;3.08;;
24143;SDS011;12307;50.828;6.080;2023-04-19T07:16:43;3.38;;;3.00;;
24143;SDS011;12307;50.828;6.080;2023-04-19T07:19:09;3.22;;;2.92;;
24143;SDS011;12307;50.828;6.080;2023-04-19T07:21:36;3.03;;;2.63;;
24143;SDS011;12307;50.828;6.080;2023-04-19T07:24:03;3.20;;;2.90;;
24143;SDS011;12307;50.828;6.080;2023-04-19T07:26:30;3.22;;;2.92;;
24143;SDS011;12307;50.828;6.080;2023-04-19T07:28:56;3.30;;;3.00;;
24143;SDS011;12307;50.828;6.080;2023-04-19T07:31:22;3.10;;;2.80;;
24143;SDS011;12307;50.828;6.080;2023-04-19T07:33:49;3.40;;;2.80;;
24143;SDS011;12307;50.828;6.080;2023-04-19T07:36:15;5.05;;;2.80;;
24143;SDS011;12307;50.828;6.080;2023-04-19T07:38:42;3.28;;;2.97;;
24143;SDS011;12307;50.828;6.080;2023-04-19T07:41:08;3.13;;;2.85;;
24143;SDS011;12307;50.828;6.080;2023-04-19T07:43:34;3.40;;;3.10;;
24143;SDS011;12307;50.828;6.080;2023-04-19T07:46:00;3.35;;;3.05;;
24143;SDS011;12307;50.828;6.080;2023-04-19T07:48:25;3.58;;;3.28;;
24143;SDS011;12307;50.828;6.080;2023-04-19T07:50:51;3.40;;;3.10;;
24143;SDS011;12307;50.828;6.080;2023-04-19T07:53:17;3.22;;;2.92;;
24143;SDS011;12307;50.828;6.080;2023-04-19T07:55:44;3.53;;;3.22;;
24143;SDS011;12307;50.828;6.080;2023-04-19T07:58:10;3.10;;;2.80;;
24143;SDS011;12307;50.828;6.080;2023-04-19T08:00:36;3.17;;;2.88;;
24143;SDS011;12307;50.828;6.080;2023-04-19T08:03:02;4.03;;;3.00;;
24143;SDS011;12307;50.828;6.080;2023-04-19T08:05:28;3.60;;;3.30;;
24143;SDS011;12307;50.828;6.080;2023-04-19T08:07:55;3.38;;;3.08;;
24143;SDS011;12307;50.828;6.080;2023-04-19T08:10:21;3.42;;;2.83;;
24143;SDS011;12307;50.828;6.080;2023-04-19T08:12:48;3.70;;;2.97;;
24143;SDS011;12307;50.828;6.080;2023-04-19T08:15:15;3.10;;;2.80;;
24143;SDS011;12307;50.828;6.080;2023-04-19T08:17:41;3.70;;;3.20;;
24143;SDS011;12307;50.828;6.080;2023-04-19T08:20:08;2.90;;;2.60;;
24143;SDS011;12307;50.828;6.080;2023-04-19T08:22:35;3.20;;;2.90;;
24143;SDS011;12307;50.828;6.080;2023-04-19T08:25:01;2.85;;;2.63;;
24143;SDS011;12307;50.828;6.080;2023-04-19T08:27:27;3.05;;;2.60;;
24143;SDS011;12307;50.828;6.080;2023-04-19T08:29:54;3.30;;;3.00;;
24143;SDS011;12307;50.828;6.080;2023-04-19T08:32:20;2.83;;;2.60;;
24143;SDS011;12307;50.828;6.080;2023-04-19T08:34:46;2.70;;;2.50;;
24143;SDS011;12307;50.828;6.080;2023-04-19T08:37:12;3.25;;;2.40;;
24143;SDS011;12307;50.828;6.080;2023-04-19T08:39:37;2.70;;;2.50;;
24143;SDS011;12307;50.828;6.080;2023-04-19T08:42:04;2.83;;;2.63;;
24143;SDS011;12307;50.828;6.080;2023-04-19T08:44:31;3.33;;;2.45;;
24143;SDS011;12307;50.828;6.080;2023-04-19T08:46:58;2.70;;;2.47;;
24143;SDS011;12307;50.828;6.080;2023-04-19T08:49:25;2.83;;;2.63;;
24143;SDS011;12307;50.828;6.080;2023-04-19T08:51:51;2.83;;;2.47;;
24143;SDS011;12307;50.828;6.080;2023-04-19T08:54:18;3.38;;;2.63;;
24143;SDS011;12307;50.828;6.080;2023-04-19T08:56:45;2.72;;;2.53;;
24143;SDS011;12307;50.828;6.080;2023-04-19T08:59:11;4.68;;;2.40;;
24143;SDS011;12307;50.828;6.080;2023-04-19T09:01:38;2.78;;;2.55;;
24143;SDS011;12307;50.828;6.080;2023-04-19T09:04:05;2.65;;;2.45;;
24143;SDS011;12307;50.828;6.080;2023-04-19T09:06:34;2.67;;;2.42;;
24143;SDS011;12307;50.828;6.080;2023-04-19T09:09:12;4.63;;;2.53;;
24143;SDS011;12307;50.828;6.080;2023-04-19T09:11:40;3.53;;;2.60;;
24143;SDS011;12307;50.828;6.080;2023-04-19T09:14:06;3.50;;;2.60;;
24143;SDS011;12307;50.828;6.080;2023-04-19T09:16:33;2.92;;;2.60;;
24143;SDS011;12307;50.828;6.080;2023-04-19T09:19:00;3.08;;;2.55;;
24143;SDS011;12307;50.828;6.080;2023-04-19T09:21:28;3.33;;;2.60;;
24143;SDS011;12307;50.828;6.080;2023-04-19T09:23:55;2.42;;;2.22;;
24143;SDS011;12307;50.828;6.080;2023-04-19T09:26:22;2.42;;;2.22;;
24143;SDS011;12307;50.828;6.080;2023-04-19T09:28:54;3.28;;;2.38;;
24143;SDS011;12307;50.828;6.080;2023-04-19T09:31:20;3.50;;;2.50;;
24143;SDS011;12307;50.828;6.080;2023-04-19T09:33:46;2.78;;;2.25;;
24143;SDS011;12307;50.828;6.080;2023-04-19T09:36:12;2.72;;;2.30;;
24143;SDS011;12307;50.828;6.080;2023-04-19T09:38:53;3.42;;;2.30;;
24143;SDS011;12307;50.828;6.080;2023-04-19T09:41:18;2.67;;;2.47;;
24143;SDS011;12307;50.828;6.080;2023-04-19T09:43:45;2.90;;;2.40;;
24143;SDS011;12307;50.828;6.080;2023-04-19T09:48:58;2.50;;;2.30;;
24143;SDS011;12307;50.828;6.080;2023-04-19T09:51:40;2.95;;;2.15;;
24143;SDS011;12307;50.828;6.080;2023-04-19T09:54:08;3.60;;;2.25;;
24143;SDS011;12307;50.828;6.080;2023-04-19T09:56:34;2.63;;;2.30;;
24143;SDS011;12307;50.828;6.080;2023-04-19T09:59:01;2.55;;;2.13;;
24143;SDS011;12307;50.828;6.080;2023-04-19T10:01:27;2.65;;;2.20;;
24143;SDS011;12307;50.828;6.080;2023-04-19T10:03:56;3.45;;;2.38;;
24143;SDS011;12307;50.828;6.080;2023-04-19T10:06:22;3.22;;;2.47;;
24143;SDS011;12307;50.828;6.080;2023-04-19T10:08:48;4.13;;;2.40;;
24143;SDS011;12307;50.828;6.080;2023-04-19T10:11:17;3.60;;;2.38;;
24143;SDS011;12307;50.828;6.080;2023-04-19T10:13:45;2.40;;;2.20;;
24143;SDS011;12307;50.828;6.080;2023-04-19T10:16:13;3.22;;;2.20;;
24143;SDS011;12307;50.828;6.080;2023-04-19T10:18:38;2.50;;;2.30;;
24143;SDS011;12307;50.828;6.080;2023-04-19T10:21:05;2.92;;;2.30;;
24143;SDS011;12307;50.828;6.080;2023-04-19T10:23:34;2.95;;;2.30;;
24143;SDS011;12307;50.828;6.080;2023-04-19T10:26:01;3.17;;;2.30;;
24143;SDS011;12307;50.828;6.080;2023-04-19T10:28:28;2.80;;;2.45;;
24143;SDS011;12307;50.828;6.080;2023-04-19T10:30:58;3.83;;;2.30;;
24143;SDS011;12307;50.828;6.080;2023-04-19T10:33:25;2.08;;;1.98;;
24143;SDS011;12307;50.828;6.080;2023-04-19T10:35:54;2.75;;;2.13;;
24143;SDS011;12307;50.828;6.080;2023-04-19T10:38:24;2.33;;;2.13;;
24143;SDS011;12307;50.828;6.080;2023-04-19T10:41:00;2.72;;;2.30;;
24143;SDS011;12307;50.828;6.080;2023-04-19T10:43:29;3.38;;;2.38;;
24143;SDS011;12307;50.828;6.080;2023-04-19T10:45:57;2.25;;;2.05;;
24143;SDS011;12307;50.828;6.080;2023-04-19T10:48:32;2.70;;;2.20;;
24143;SDS011;12307;50.828;6.080;2023-04-19T10:51:11;3.58;;;2.05;;
24143;SDS011;12307;50.828;6.080;2023-04-19T10:53:42;2.92;;;2.38;;
24143;SDS011;12307;50.828;6.080;2023-04-19T10:56:13;4.38;;;2.38;;
24143;SDS011;12307;50.828;6.080;2023-04-19T11:01:46;3.25;;;2.50;;
24143;SDS011;12307;50.828;6.080;2023-04-19T11:04:15;4.63;;;2.30;;
24143;SDS011;12307;50.828;6.080;2023-04-19T11:06:57;6.03;;;2.50;;
24143;SDS011;12307;50.828;6.080;2023-04-19T11:09:25;3.25;;;2.33;;
24143;SDS011;12307;50.828;6.080;2023-04-19T11:11:52;4.35;;;2.30;;
24143;SDS011;12307;50.828;6.080;2023-04-19T11:14:22;2.85;;;2.10;;
24143;SDS011;12307;50.828;6.080;2023-04-19T11:16:49;3.92;;;1.80;;
24143;SDS011;12307;50.828;6.080;2023-04-19T11:19:15;2.80;;;1.88;;
24143;SDS011;12307;50.828;6.080;2023-04-19T11:21:41;2.00;;;1.80;;
24143;SDS011;12307;50.828;6.080;2023-04-19T11:24:06;2.25;;;1.80;;
24143;SDS011;12307;50.828;6.080;2023-04-19T11:26:32;2.85;;;2.00;;
24143;SDS011;12307;50.828;6.080;2023-04-19T11:28:59;2.20;;;1.98;;
24143;SDS011;12307;50.828;6.080;2023-04-19T11:31:26;3.95;;;1.90;;
24143;SDS011;12307;50.828;6.080;2023-04-19T11:33:53;2.45;;;1.60;;
24143;SDS011;12307;50.828;6.080;2023-04-19T11:36:18;2.45;;;1.90;;
24143;SDS011;12307;50.828;6.080;2023-04-19T11:38:45;2.67;;;1.80;;
24143;SDS011;12307;50.828;6.080;2023-04-19T11:41:11;2.17;;;1.83;;
24143;SDS011;12307;50.828;6.080;2023-04-19T11:43:37;2.10;;;1.83;;
24143;SDS011;12307;50.828;6.080;2023-04-19T11:46:04;2.30;;;2.10;;
24143;SDS011;12307;50.828;6.080;2023-04-19T11:48:32;2.97;;;1.67;;
24143;SDS011;12307;50.828;6.080;2023-04-19T11:50:58;1.65;;;1.55;;
24143;SDS011;12307;50.828;6.080;2023-04-19T11:53:24;1.98;;;1.42;;
24143;SDS011;12307;50.828;6.080;2023-04-19T11:55:52;1.90;;;1.50;;
24143;SDS011;12307;50.828;6.080;2023-04-19T11:58:25;2.25;;;1.70;;
24143;SDS011;12307;50.828;6.080;2023-04-19T12:00:53;1.70;;;1.42;;
24143;SDS011;12307;50.828;6.080;2023-04-19T12:03:20;1.80;;;1.50;;
24143;SDS011;12307;50.828;6.080;2023-04-19T12:05:57;1.75;;;1.60;;
24143;SDS011;12307;50.828;6.080;2023-04-19T12:08:31;1.63;;;1.42;;
24143;SDS011;12307;50.828;6.080;2023-04-19T12:10:58;1.40;;;1.30;;
24143;SDS011;12307;50.828;6.080;2023-04-19T12:13:24;2.55;;;1.80;;
24143;SDS011;12307;50.828;6.080;2023-04-19T12:15:50;3.70;;;1.95;;
24143;SDS011;12307;50.828;6.080;2023-04-19T12:18:16;1.75;;;1.60;;
24143;SDS011;12307;50.828;6.080;2023-04-19T12:20:43;1.70;;;1.60;;
24143;SDS011;12307;50.828;6.080;2023-04-19T12:23:11;2.75;;;1.85;;
24143;SDS011;12307;50.828;6.080;2023-04-19T12:25:40;1.77;;;1.65;;
24143;SDS011;12307;50.828;6.080;2023-04-19T12:28:07;1.77;;;1.60;;
24143;SDS011;12307;50.828;6.080;2023-04-19T12:30:33;2.75;;;1.70;;
24143;SDS011;12307;50.828;6.080;2023-04-19T12:33:00;2.00;;;1.80;;
24143;SDS011;12307;50.828;6.080;2023-04-19T12:35:26;1.80;;;1.60;;
24143;SDS011;12307;50.828;6.080;2023-04-19T12:37:53;1.40;;;1.30;;
24143;SDS011;12307;50.828;6.080;2023-04-19T12:40:21;1.30;;;1.20;;
24143;SDS011;12307;50.828;6.080;2023-04-19T12:42:48;1.92;;;1.30;;
24143;SDS011;12307;50.828;6.080;2023-04-19T12:45:14;1.40;;;1.30;;
24143;SDS011;12307;50.828;6.080;2023-04-19T12:47:43;2.03;;;1.58;;
24143;SDS011;12307;50.828;6.080;2023-04-19T12:50:11;2.42;;;1.50;;
24143;SDS011;12307;50.828;6.080;2023-04-19T12:52:37;2.47;;;1.63;;
24143;SDS011;12307;50.828;6.080;2023-04-19T12:55:04;5.30;;;1.30;;
24143;SDS011;12307;50.828;6.080;2023-04-19T12:57:32;1.52;;;1.42;;
24143;SDS011;12307;50.828;6.080;2023-04-19T12:59:57;2.05;;;1.38;;
24143;SDS011;12307;50.828;6.080;2023-04-19T13:02:23;1.92;;;1.40;;
24143;SDS011;12307;50.828;6.080;2023-04-19T13:04:49;1.48;;;1.17;;
24143;SDS011;12307;50.828;6.080;2023-04-19T13:07:15;1.42;;;1.20;;
24143;SDS011;12307;50.828;6.080;2023-04-19T13:09:41;3.70;;;1.27;;
24143;SDS011;12307;50.828;6.080;2023-04-19T13:12:06;2.20;;;1.30;;
24143;SDS011;12307;50.828;6.080;2023-04-19T13:14:34;1.75;;;1.27;;
24143;SDS011;12307;50.828;6.080;2023-04-19T13:16:59;2.03;;;1.42;;
24143;SDS011;12307;50.828;6.080;2023-04-19T13:19:25;2.90;;;1.38;;
24143;SDS011;12307;50.828;6.080;2023-04-19T13:21:51;1.70;;;1.17;;
24143;SDS011;12307;50.828;6.080;2023-04-19T13:24:17;1.58;;;1.10;;
24143;SDS011;12307;50.828;6.080;2023-04-19T13:26:42;1.58;;;1.05;;
24143;SDS011;12307;50.828;6.080;2023-04-19T13:29:10;1.65;;;1.30;;
24143;SDS011;12307;50.828;6.080;2023-04-19T13:31:37;1.52;;;1.20;;
24143;SDS011;12307;50.828;6.080;2023-04-19T13:34:03;1.92;;;1.25;;
24143;SDS011;12307;50.828;6.080;2023-04-19T13:36:29;2.05;;;1.00;;
24143;SDS011;12307;50.828;6.080;2023-04-19T13:38:55;1.48;;;1.00;;
24143;SDS011;12307;50.828;6.080;2023-04-19T13:41:21;1.65;;;1.10;;
24143;SDS011;12307;50.828;6.080;2023-04-19T13:43:46;1.30;;;1.13;;
24143;SDS011;12307;50.828;6.080;2023-04-19T13:46:12;1.98;;;1.30;;
24143;SDS011;12307;50.828;6.080;2023-04-19T13:48:39;2.17;;;1.13;;
24143;SDS011;12307;50.828;6.080;2023-04-19T13:51:05;2.47;;;1.38;;
24143;SDS011;12307;50.828;6.080;2023-04-19T13:53:31;1.90;;;1.15;;
24143;SDS011;12307;50.828;6.080;2023-04-19T13:55:57;1.50;;;1.20;;
24143;SDS011;12307;50.828;6.080;2023-04-19T13:58:22;2.95;;;1.23;;
24143;SDS011;12307;50.828;6.080;2023-04-19T14:00:51;1.27;;;1.13;;
24143;SDS011;12307;50.828;6.080;2023-04-19T14:03:17;1.90;;;1.52;;
24143;SDS011;12307;50.828;6.080;2023-04-19T14:05:44;1.40;;;1.20;;
24143;SDS011;12307;50.828;6.080;2023-04-19T14:08:10;1.73;;;1.20;;
24143;SDS011;12307;50.828;6.080;2023-04-19T14:10:36;1.33;;;1.20;;
24143;SDS011;12307;50.828;6.080;2023-04-19T14:13:02;1.50;;;1.30;;
24143;SDS011;12307;50.828;6.080;2023-04-19T14:15:27;1.15;;;1.05;;
24143;SDS011;12307;50.828;6.080;2023-04-19T14:17:53;1.50;;;1.00;;
24143;SDS011;12307;50.828;6.080;2023-04-19T14:20:19;1.92;;;1.27;;
24143;SDS011;12307;50.828;6.080;2023-04-19T14:22:46;1.40;;;1.17;;
24143;SDS011;12307;50.828;6.080;2023-04-19T14:25:12;3.25;;;1.30;;
24143;SDS011;12307;50.828;6.080;2023-04-19T14:27:42;2.90;;;1.20;;
24143;SDS011;12307;50.828;6.080;2023-04-19T14:30:08;1.10;;;1.00;;
24143;SDS011;12307;50.828;6.080;2023-04-19T14:32:34;1.70;;;1.23;;
24143;SDS011;12307;50.828;6.080;2023-04-19T14:35:00;1.45;;;1.35;;
24143;SDS011;12307;50.828;6.080;2023-04-19T14:37:26;1.55;;;1.25;;
24143;SDS011;12307;50.828;6.080;2023-04-19T14:39:53;1.88;;;1.10;;
24143;SDS011;12307;50.828;6.080;2023-04-19T14:42:19;1.83;;;1.13;;
24143;SDS011;12307;50.828;6.080;2023-04-19T14:44:45;2.00;;;1.20;;
24143;SDS011;12307;50.828;6.080;2023-04-19T14:47:11;1.27;;;1.17;;
24143;SDS011;12307;50.828;6.080;2023-04-19T14:49:37;1.33;;;1.10;;